createdAt,value
2023-04-15T00:02:23.827Z,8.21
2023-04-15T00:05:25.896Z,8.10
2023-04-15T00:08:29.878Z,8.04
2023-04-15T00:11:31.669Z,7.98
2023-04-15T00:14:35.866Z,7.91
2023-04-15T00:17:39.688Z,7.76
2023-04-15T00:20:41.581Z,7.27
2023-04-15T00:24:05.334Z,7.06
2023-04-15T00:27:07.161Z,7.03
2023-04-15T00:30:09.136Z,7.09
2023-04-15T00:33:10.867Z,7.23
2023-04-15T00:36:12.641Z,7.25
2023-04-15T00:39:16.231Z,7.27
2023-04-15T00:42:19.663Z,7.30
2023-04-15T00:45:21.253Z,7.29
2023-04-15T00:48:23.674Z,7.22
2023-04-15T00:51:26.003Z,7.16
2023-04-15T00:54:27.531Z,6.98
2023-04-15T00:57:30.044Z,6.88
2023-04-15T01:00:32.581Z,6.86
2023-04-15T01:03:34.621Z,6.77
2023-04-15T01:06:36.240Z,6.66
2023-04-15T01:09:38.950Z,6.67
2023-04-15T01:12:40.862Z,6.61
2023-04-15T01:15:43.492Z,6.60
2023-04-15T01:18:45.844Z,6.71
2023-04-15T01:22:08.851Z,6.75
2023-04-15T01:25:18.493Z,6.70
2023-04-15T01:28:20.421Z,6.66
2023-04-15T01:31:22.902Z,6.66
2023-04-15T01:34:25.245Z,6.65
2023-04-15T01:37:29.455Z,6.61
2023-04-15T01:40:31.359Z,6.60
2023-04-15T01:43:36.261Z,6.59
2023-04-15T01:46:38.178Z,6.49
2023-04-15T01:49:40.048Z,6.45
2023-04-15T01:52:42.350Z,6.49
2023-04-15T01:55:44.223Z,6.50
2023-04-15T01:58:49.538Z,6.39
2023-04-15T02:01:52.293Z,6.14
2023-04-15T02:04:54.663Z,5.86
2023-04-15T02:07:56.444Z,5.67
2023-04-15T02:10:58.476Z,5.70
2023-04-15T02:14:00.423Z,5.71
2023-04-15T02:17:07.185Z,5.72
2023-04-15T02:20:09.799Z,5.77
2023-04-15T02:23:14.326Z,5.72
2023-04-15T02:26:18.715Z,5.76
2023-04-15T02:29:20.487Z,5.85
2023-04-15T02:32:24.346Z,5.86
2023-04-15T02:35:29.169Z,5.76
2023-04-15T02:38:32.268Z,5.60
2023-04-15T02:41:34.767Z,5.51
2023-04-15T02:44:38.149Z,5.51
2023-04-15T02:47:41.500Z,5.47
2023-04-15T02:50:44.185Z,5.43
2023-04-15T02:53:49.351Z,5.33
2023-04-15T02:56:55.113Z,5.28
2023-04-15T02:59:57.733Z,5.19
2023-04-15T03:03:04.706Z,5.18
2023-04-15T03:06:07.334Z,5.23
2023-04-15T03:09:08.932Z,5.24
2023-04-15T03:12:12.160Z,5.23
2023-04-15T03:15:13.967Z,5.28
2023-04-15T03:18:19.693Z,5.27
2023-04-15T03:21:24.582Z,5.32
2023-04-15T03:24:46.886Z,5.25
2023-04-15T03:27:48.801Z,5.13
2023-04-15T03:30:51.767Z,5.02
2023-04-15T03:33:55.999Z,4.96
2023-04-15T03:36:58.533Z,4.89
2023-04-15T03:40:00.472Z,4.91
2023-04-15T03:43:02.051Z,4.98
2023-04-15T03:46:04.361Z,5.02
2023-04-15T03:49:07.238Z,4.99
2023-04-15T03:52:09.438Z,4.85
2023-04-15T03:55:10.894Z,4.79
2023-04-15T03:58:15.763Z,4.87
2023-04-15T04:01:17.311Z,5.00
2023-04-15T04:04:19.676Z,5.03
2023-04-15T04:07:23.674Z,4.97
2023-04-15T04:10:27.026Z,5.05
2023-04-15T04:13:28.825Z,5.07
2023-04-15T04:16:31.108Z,5.12
2023-04-15T04:19:33.544Z,5.17
2023-04-15T04:22:42.098Z,5.21
2023-04-15T04:25:44.332Z,5.10
2023-04-15T04:28:46.006Z,5.04
2023-04-15T04:31:48.694Z,4.99
2023-04-15T04:34:50.526Z,4.93
2023-04-15T04:37:52.755Z,4.94
2023-04-15T04:40:54.124Z,4.86
2023-04-15T04:43:55.911Z,4.88
2023-04-15T04:46:57.714Z,4.93
2023-04-15T04:49:59.541Z,4.93
2023-04-15T04:53:01.693Z,5.00
2023-04-15T04:56:04.005Z,5.06
2023-04-15T04:59:06.490Z,4.98
2023-04-15T05:02:08.396Z,4.98
2023-04-15T05:05:11.675Z,5.02
2023-04-15T05:08:13.540Z,4.97
2023-04-15T05:11:14.954Z,4.95
2023-04-15T05:14:39.766Z,4.99
2023-04-15T05:17:41.657Z,5.27
2023-04-15T05:20:43.484Z,5.47
2023-04-15T05:23:45.372Z,5.48
2023-04-15T05:26:47.208Z,5.20
2023-04-15T05:29:49.061Z,5.18
2023-04-15T05:32:50.967Z,5.12
2023-04-15T05:35:52.965Z,5.09
2023-04-15T05:38:54.750Z,5.02
2023-04-15T05:41:57.542Z,4.98
2023-04-15T05:45:02.507Z,5.10
2023-04-15T05:48:04.649Z,5.16
2023-04-15T05:51:06.529Z,5.22
2023-04-15T05:54:08.501Z,5.36
2023-04-15T05:57:10.327Z,5.45
2023-04-15T06:00:13.498Z,5.52
2023-04-15T06:03:15.967Z,5.62
2023-04-15T06:06:17.802Z,5.59
2023-04-15T06:09:19.572Z,5.58
2023-04-15T06:12:23.750Z,5.64
2023-04-15T06:15:25.975Z,5.73
2023-04-15T06:18:27.752Z,5.83
2023-04-15T06:21:29.875Z,5.99
2023-04-15T06:24:33.019Z,6.05
2023-04-15T06:27:34.861Z,6.19
2023-04-15T06:30:36.815Z,6.30
2023-04-15T06:33:38.255Z,6.49
2023-04-15T06:36:39.652Z,6.71
2023-04-15T06:39:41.018Z,6.80
2023-04-15T06:42:42.897Z,6.99
2023-04-15T06:45:44.776Z,7.17
2023-04-15T06:48:47.357Z,7.33
2023-04-15T06:51:49.180Z,7.35
2023-04-15T06:54:51.124Z,7.29
2023-04-15T06:57:53.328Z,7.46
2023-04-15T07:00:54.784Z,7.48
2023-04-15T07:03:57.315Z,7.64
2023-04-15T07:07:02.406Z,7.68
2023-04-15T07:10:05.492Z,7.83
2023-04-15T07:13:09.156Z,7.94
2023-04-15T07:16:10.604Z,8.26
2023-04-15T07:19:12.073Z,8.65
2023-04-15T07:22:13.995Z,9.06
2023-04-15T07:25:15.911Z,9.19
2023-04-15T07:28:17.865Z,9.34
2023-04-15T07:31:19.724Z,9.23
2023-04-15T07:34:21.201Z,9.21
2023-04-15T07:37:23.236Z,9.02
2023-04-15T07:40:25.121Z,9.00
2023-04-15T07:43:26.964Z,9.30
2023-04-15T07:46:28.976Z,9.57
2023-04-15T07:49:30.772Z,9.72
2023-04-15T07:52:38.997Z,9.90
2023-04-15T07:55:40.535Z,10.04
2023-04-15T07:58:42.785Z,10.10
2023-04-15T08:01:45.190Z,10.17
2023-04-15T08:04:48.670Z,10.20
2023-04-15T08:07:50.990Z,10.44
2023-04-15T08:10:52.977Z,10.64
2023-04-15T08:13:54.853Z,10.55
2023-04-15T08:16:56.313Z,10.60
2023-04-15T08:19:58.229Z,11.04
2023-04-15T08:23:00.135Z,11.37
2023-04-15T08:26:02.174Z,11.72
2023-04-15T08:29:04.310Z,12.15
2023-04-15T08:32:07.143Z,12.20
2023-04-15T08:35:09.120Z,12.14
2023-04-15T08:41:57.638Z,12.48
2023-04-15T08:45:04.655Z,12.07
2023-04-15T08:48:09.764Z,12.02
2023-04-15T08:51:15.923Z,12.15
2023-04-15T08:54:18.771Z,12.25
2023-04-15T08:57:21.320Z,12.28
2023-04-15T09:00:23.365Z,12.34
2023-04-15T09:03:26.626Z,12.47
2023-04-15T09:06:28.518Z,12.77
2023-04-15T09:09:30.427Z,12.62
2023-04-15T09:12:35.445Z,12.72
2023-04-15T09:15:38.944Z,12.92
2023-04-15T09:18:43.313Z,13.23
2023-04-15T09:21:47.625Z,13.31
2023-04-15T09:24:49.509Z,13.53
2023-04-15T09:27:55.428Z,13.39
2023-04-15T09:31:01.694Z,13.34
2023-04-15T09:34:03.949Z,13.59
2023-04-15T09:37:07.595Z,13.55
2023-04-15T09:40:10.167Z,13.62
2023-04-15T09:43:13.934Z,13.80
2023-04-15T09:46:15.426Z,13.85
2023-04-15T09:49:17.863Z,13.76
2023-04-15T09:52:43.475Z,13.72
2023-04-15T09:55:49.677Z,13.65
2023-04-15T09:58:56.579Z,13.65
2023-04-15T10:01:58.595Z,13.59
2023-04-15T10:05:02.400Z,13.64
2023-04-15T10:08:04.742Z,13.75
2023-04-15T10:11:07.857Z,13.91
2023-04-15T10:14:10.963Z,14.15
2023-04-15T10:17:16.521Z,14.00
2023-04-15T10:20:19.662Z,13.89
2023-04-15T10:23:23.511Z,13.94
2023-04-15T10:26:25.213Z,13.96
2023-04-15T10:29:29.968Z,14.21
2023-04-15T10:32:32.077Z,14.34
2023-04-15T10:35:34.503Z,14.37
2023-04-15T10:38:46.679Z,14.13
2023-04-15T10:42:07.681Z,14.26
2023-04-15T10:45:17.393Z,14.17
2023-04-15T10:48:19.657Z,14.35
2023-04-15T10:51:30.186Z,14.39
2023-04-15T10:54:34.388Z,14.55
2023-04-15T10:57:39.237Z,14.69
2023-04-15T11:00:41.514Z,14.56
2023-04-15T11:03:43.654Z,14.73
2023-04-15T11:06:46.140Z,14.83
2023-04-15T11:09:47.910Z,14.68
2023-04-15T11:13:04.178Z,14.72
2023-04-15T11:16:06.623Z,14.70
2023-04-15T11:19:08.070Z,14.82
2023-04-15T11:22:10.575Z,14.96
2023-04-15T11:25:25.112Z,15.20
2023-04-15T11:28:28.455Z,15.43
2023-04-15T11:31:30.170Z,15.52
2023-04-15T11:34:53.529Z,15.04
2023-04-15T11:37:55.718Z,14.97
2023-04-15T11:40:57.608Z,14.98
2023-04-15T11:44:02.050Z,15.04
2023-04-15T11:47:24.884Z,14.95
2023-04-15T11:50:26.294Z,14.68
2023-04-15T11:53:45.893Z,14.60
2023-04-15T11:56:52.800Z,14.76
2023-04-15T11:59:55.398Z,14.71
2023-04-15T12:03:40.690Z,14.69
2023-04-15T12:06:42.474Z,14.52
2023-04-15T12:09:55.013Z,14.41
2023-04-15T12:12:56.908Z,14.55
2023-04-15T12:15:58.829Z,14.49
2023-04-15T12:19:04.261Z,14.53
2023-04-15T12:22:10.800Z,14.53
2023-04-15T12:25:35.388Z,14.40
2023-04-15T12:28:37.168Z,14.53
2023-04-15T12:31:50.594Z,14.59
2023-04-15T12:34:54.531Z,14.15
2023-04-15T12:37:56.273Z,14.07
2023-04-15T12:40:58.517Z,14.06
2023-04-15T12:44:00.767Z,14.18
2023-04-15T12:47:04.023Z,14.03
2023-04-15T12:50:27.506Z,14.19
2023-04-15T12:53:29.415Z,14.14
2023-04-15T12:56:31.835Z,14.16
2023-04-15T12:59:33.635Z,13.99
2023-04-15T13:02:36.549Z,13.97
2023-04-15T13:05:39.818Z,14.03
2023-04-15T13:08:47.960Z,13.85
2023-04-15T13:11:57.404Z,13.88
2023-04-15T13:14:59.214Z,13.85
2023-04-15T13:18:01.224Z,13.85
2023-04-15T13:21:05.270Z,13.84
2023-04-15T13:24:09.688Z,13.87
2023-04-15T13:27:12.261Z,13.92
2023-04-15T13:30:38.043Z,14.00
2023-04-15T13:33:39.897Z,14.03
2023-04-15T13:37:08.112Z,14.00
2023-04-15T13:40:13.661Z,14.07
2023-04-15T13:43:16.206Z,14.13
2023-04-15T13:46:18.135Z,14.14
2023-04-15T13:49:19.992Z,14.11
2023-04-15T13:52:22.356Z,14.18
2023-04-15T13:55:26.361Z,14.24
2023-04-15T13:58:28.923Z,14.20
2023-04-15T14:01:31.105Z,14.14
2023-04-15T14:04:33.118Z,14.08
2023-04-15T14:07:35.039Z,13.91
2023-04-15T14:10:38.554Z,14.04
2023-04-15T14:13:39.972Z,13.91
2023-04-15T14:16:41.433Z,13.91
2023-04-15T14:19:42.926Z,14.04
2023-04-15T14:22:44.844Z,14.10
2023-04-15T14:26:08.998Z,14.11
2023-04-15T14:29:11.140Z,14.15
2023-04-15T14:32:14.736Z,14.18
2023-04-15T14:35:17.131Z,14.14
2023-04-15T14:38:19.141Z,13.93
2023-04-15T14:41:22.248Z,13.80
2023-04-15T14:44:24.143Z,13.63
2023-04-15T14:47:44.029Z,13.74
2023-04-15T14:50:45.906Z,13.51
2023-04-15T14:53:47.690Z,13.46
2023-04-15T14:56:50.706Z,13.36
2023-04-15T14:59:56.458Z,13.43
2023-04-15T15:03:01.629Z,13.36
2023-04-15T15:06:04.052Z,13.22
2023-04-15T15:09:06.100Z,13.05
2023-04-15T15:12:07.900Z,12.95
2023-04-15T15:15:25.003Z,12.98
2023-04-15T15:18:31.003Z,12.74
2023-04-15T15:21:32.370Z,12.63
2023-04-15T15:24:34.145Z,12.59
2023-04-15T15:27:38.154Z,12.55
2023-04-15T15:30:40.169Z,12.43
2023-04-15T15:33:41.974Z,12.23
2023-04-15T15:37:06.050Z,12.08
2023-04-15T15:40:08.626Z,12.05
2023-04-15T15:43:10.211Z,12.02
2023-04-15T15:46:12.108Z,11.80
2023-04-15T15:49:13.984Z,11.73
2023-04-15T15:52:16.300Z,11.62
2023-04-15T15:55:18.801Z,11.53
2023-04-15T15:58:20.685Z,11.54
2023-04-15T16:01:23.353Z,11.45
2023-04-15T16:04:25.392Z,11.45
2023-04-15T16:07:27.355Z,11.43
2023-04-15T16:10:29.177Z,11.31
2023-04-15T16:13:31.003Z,11.10
2023-04-15T16:16:32.955Z,11.08
2023-04-15T16:19:34.777Z,11.07
2023-04-15T16:22:37.250Z,10.93
2023-04-15T16:25:39.299Z,10.93
2023-04-15T16:28:40.818Z,10.85
2023-04-15T16:31:43.027Z,10.82
2023-04-15T16:34:45.208Z,10.96
2023-04-15T16:37:46.984Z,10.99
2023-04-15T16:40:48.906Z,10.96
2023-04-15T16:43:52.561Z,10.92
2023-04-15T16:46:54.461Z,10.87
2023-04-15T16:49:56.280Z,10.83
2023-04-15T16:52:58.063Z,10.68
2023-04-15T16:56:00.040Z,10.67
2023-04-15T16:59:02.335Z,10.65
2023-04-15T17:02:04.298Z,10.67
2023-04-15T17:05:06.753Z,10.60
2023-04-15T17:08:08.896Z,10.58
2023-04-15T17:11:11.701Z,10.53
2023-04-15T17:14:13.523Z,10.50
2023-04-15T17:17:16.647Z,10.45
2023-04-15T17:20:18.935Z,10.49
2023-04-15T17:23:20.400Z,10.48
2023-04-15T17:26:22.184Z,10.47
2023-04-15T17:29:24.690Z,10.32
2023-04-15T17:32:32.029Z,10.30
2023-04-15T17:35:33.935Z,10.20
2023-04-15T17:38:35.801Z,10.16
2023-04-15T17:41:37.578Z,10.19
2023-04-15T17:44:40.010Z,10.20
2023-04-15T17:47:41.995Z,10.09
2023-04-15T17:51:06.397Z,10.11
2023-04-15T17:54:07.859Z,10.07
2023-04-15T17:57:09.716Z,10.11
2023-04-15T18:00:12.182Z,10.13
2023-04-15T18:03:14.485Z,10.13
2023-04-15T18:06:17.275Z,10.17
2023-04-15T18:09:18.650Z,10.12
2023-04-15T18:12:20.542Z,10.08
2023-04-15T18:15:21.964Z,9.99
2023-04-15T18:18:27.925Z,9.99
2023-04-15T18:21:29.982Z,10.06
2023-04-15T18:24:31.619Z,9.97
2023-04-15T18:27:33.762Z,9.96
2023-04-15T18:30:38.791Z,10.00
2023-04-15T18:33:41.073Z,9.99
2023-04-15T18:36:43.114Z,9.85
2023-04-15T18:39:44.988Z,9.86
2023-04-15T18:42:46.814Z,9.85
2023-04-15T18:45:48.302Z,9.86
2023-04-15T18:48:49.725Z,9.89
2023-04-15T18:51:51.532Z,9.79
2023-04-15T18:54:53.914Z,9.85
2023-04-15T18:57:56.725Z,9.74
2023-04-15T19:01:10.572Z,9.74
2023-04-15T19:04:13.509Z,9.80
2023-04-15T19:07:15.286Z,9.67
2023-04-15T19:10:20.008Z,9.63
2023-04-15T19:13:41.184Z,9.65
2023-04-15T19:16:43.259Z,9.67
2023-04-15T19:19:48.756Z,9.55
2023-04-15T19:22:50.180Z,9.55
2023-04-15T19:25:51.971Z,9.53
2023-04-15T19:28:56.358Z,9.56
2023-04-15T19:32:00.833Z,9.62
2023-04-15T19:35:03.566Z,9.60
2023-04-15T19:38:05.269Z,9.58
2023-04-15T19:41:07.113Z,9.66
2023-04-15T19:44:09.073Z,9.75
2023-04-15T19:47:11.290Z,9.73
2023-04-15T19:50:13.236Z,9.58
2023-04-15T19:53:14.932Z,9.57
2023-04-15T19:56:16.767Z,9.65
2023-04-15T19:59:18.620Z,9.58
2023-04-15T20:02:21.094Z,9.54
2023-04-15T20:05:23.596Z,9.52
2023-04-15T20:08:25.429Z,9.52
2023-04-15T20:12:46.744Z,9.52
2023-04-15T20:14:52.305Z,9.56
2023-04-15T20:17:54.852Z,9.59
2023-04-15T20:20:56.753Z,9.57
2023-04-15T20:23:58.200Z,9.51
2023-04-15T20:27:01.032Z,9.49
2023-04-15T20:30:05.110Z,9.53
2023-04-15T20:33:07.948Z,9.60
2023-04-15T20:36:11.131Z,9.60
2023-04-15T20:39:12.619Z,9.50
2023-04-15T20:42:14.612Z,9.45
2023-04-15T20:45:16.587Z,9.50
2023-04-15T20:48:19.548Z,9.42
2023-04-15T20:51:21.109Z,9.35
2023-04-15T20:54:23.041Z,9.40
2023-04-15T20:57:24.879Z,9.36
2023-04-15T21:00:27.530Z,9.35
2023-04-15T21:03:29.273Z,9.38
2023-04-15T21:06:33.142Z,9.40
2023-04-15T21:09:34.598Z,9.42
2023-04-15T21:12:37.662Z,9.43
2023-04-15T21:16:00.656Z,9.43
2023-04-15T21:19:02.479Z,9.51
2023-04-15T21:22:04.908Z,9.47
2023-04-15T21:25:06.654Z,9.52
2023-04-15T21:28:08.738Z,9.50
2023-04-15T21:31:10.584Z,9.50
2023-04-15T21:34:12.548Z,9.54
2023-04-15T21:37:35.163Z,9.53
2023-04-15T21:40:40.890Z,9.54
2023-04-15T21:44:00.749Z,9.58
2023-04-15T21:47:02.622Z,9.64
2023-04-15T21:50:05.247Z,9.66
2023-04-15T21:53:08.126Z,9.61
2023-04-15T21:56:10.162Z,9.61
2023-04-15T21:59:15.039Z,9.61
2023-04-15T22:02:17.903Z,9.68
2023-04-15T22:05:19.759Z,9.71
2023-04-15T22:08:21.213Z,9.75
2023-04-15T22:11:26.874Z,9.79
2023-04-15T22:14:29.911Z,9.70
2023-04-15T22:17:31.717Z,9.67
2023-04-15T22:20:33.750Z,9.63
2023-04-15T22:23:35.712Z,9.66
2023-04-15T22:26:56.641Z,9.71
2023-04-15T22:29:58.475Z,9.70
2023-04-15T22:33:00.872Z,9.66
2023-04-15T22:36:02.857Z,9.60
2023-04-15T22:39:06.286Z,9.65
2023-04-15T22:42:08.390Z,9.62
2023-04-15T22:45:10.120Z,9.57
2023-04-15T22:48:11.959Z,9.58
2023-04-15T22:51:20.945Z,9.58
2023-04-15T22:54:22.840Z,9.63
2023-04-15T22:57:24.393Z,9.59
2023-04-15T23:00:26.805Z,9.59
2023-04-15T23:03:28.419Z,9.56
2023-04-15T23:06:30.426Z,9.52
2023-04-15T23:09:32.237Z,9.52
2023-04-15T23:12:34.186Z,9.50
2023-04-15T23:15:35.963Z,9.48
2023-04-15T23:18:37.762Z,9.44
2023-04-15T23:21:39.538Z,9.41
2023-04-15T23:24:41.371Z,9.45
2023-04-15T23:27:43.206Z,9.38
2023-04-15T23:30:44.972Z,9.37
2023-04-15T23:33:46.746Z,9.41
2023-04-15T23:36:48.560Z,9.43
2023-04-15T23:39:52.742Z,9.38
2023-04-15T23:42:54.532Z,9.37
2023-04-15T23:45:56.635Z,9.40
2023-04-15T23:48:58.460Z,9.40
2023-04-15T23:52:00.344Z,9.38
2023-04-15T23:55:02.978Z,9.32
2023-04-15T23:58:05.837Z,9.30
